Etusivu
METAR-TAF:

METAR-TAF

Lentoasemat :

Ermelo, Etelä-Afrikka

Leveyspiiri: 26-29-44S, Pituuspiiri: 29-58-47E, korkeus merenpinnasta: 1737 m

Tämänhetkinen sää

Tämä raportti tehtiin 2 tuntia ja 0 minuuttia sitten, kello 03.48 UTC
Tuuli 9 kn idästä/kaakosta
Lämpötila 14°C
Kosteus 100%
Ilmanpaine 1017 hPa
Näkyvyys: 4000 m
Muutamia pilviä 600 ft:n korkeudessa
Hajonneita pilviä 8000 ft:n korkeudessa
sumuhattaroita

METAR: FAEO 190348Z 11009KT 4000 BCFG FEW006 BKN080 14/14 Q1017

Aika: 07:48 (05:48 UTC)


TAF: puuttuu

Säähavainnot ja -ennusteet yli 4000 lentoasemalta (METAR- ja TAF-raportit).

Käytössä olevat sääasemat on merkitty karttaan keltaisilla ja punaisilla pisteillä.

Aseta hiiri pisteen päälle nähdäksesi sääaseman nimen.

Klikkaa sitten nähdäksesi säähavainnot ja -ennusteet.

Kartan vaihtaminen: klikkaa mustalla rastilla varustettuja vihreitä pisteitä, niin voit zoomata sisään; viivalla varustettua vihreää pistettä, niin voit zoomata ulos tai vihreitä nuolia, niin pääset viereisille kartoille.


METAR-TAF: